createdAt,value
2017-04-19T00:00:50.826Z,0
2017-04-19T00:01:50.822Z,0
2017-04-19T00:02:50.393Z,0
2017-04-19T00:03:50.694Z,0
2017-04-19T00:04:50.061Z,0
2017-04-19T00:05:50.643Z,0
2017-04-19T00:06:50.603Z,0
2017-04-19T00:07:50.714Z,0
2017-04-19T00:08:50.564Z,0
2017-04-19T00:09:50.552Z,0
2017-04-19T00:10:49.892Z,0
2017-04-19T00:11:49.882Z,0
2017-04-19T00:12:50.547Z,0
2017-04-19T00:13:50.124Z,0
2017-04-19T00:14:50.416Z,0
2017-04-19T00:15:50.394Z,0
2017-04-19T00:16:49.852Z,0
2017-04-19T00:17:50.043Z,0
2017-04-19T00:18:49.394Z,0
2017-04-19T00:19:50.013Z,0
2017-04-19T00:20:50.284Z,0
2017-04-19T00:21:49.720Z,0
2017-04-19T00:22:50.222Z,0
2017-04-19T00:23:50.213Z,0
2017-04-19T00:24:50.195Z,0
2017-04-19T00:25:49.852Z,0
2017-04-19T00:26:49.872Z,0
2017-04-19T00:27:49.802Z,0
2017-04-19T00:28:49.786Z,0
2017-04-19T00:29:49.540Z,0
2017-04-19T00:30:49.792Z,0
2017-04-19T00:31:49.385Z,0
2017-04-19T00:32:49.682Z,0
2017-04-19T00:33:49.714Z,0
2017-04-19T00:34:49.750Z,0
2017-04-19T00:35:49.645Z,0
2017-04-19T00:36:49.294Z,0
2017-04-19T00:37:49.554Z,0
2017-04-19T00:38:49.526Z,0
2017-04-19T00:39:49.506Z,0
2017-04-19T00:40:49.581Z,0
2017-04-19T00:41:49.462Z,0
2017-04-19T00:42:49.764Z,0
2017-04-19T00:43:49.099Z,0
2017-04-19T00:44:49.444Z,0
2017-04-19T00:45:49.656Z,0
2017-04-19T00:46:49.333Z,0
2017-04-19T00:47:49.322Z,0
2017-04-19T00:48:49.024Z,0
2017-04-19T00:49:49.285Z,0
2017-04-19T00:50:49.548Z,0
2017-04-19T00:51:49.213Z,0
2017-04-19T00:52:49.183Z,0
2017-04-19T00:53:49.482Z,0
2017-04-19T00:54:49.494Z,0
2017-04-19T00:55:49.475Z,0
2017-04-19T00:56:49.111Z,0
2017-04-19T00:57:49.382Z,0
2017-04-19T00:58:49.063Z,0
2017-04-19T00:59:49.332Z,0
2017-04-19T01:00:49.317Z,0
2017-04-19T01:01:48.971Z,0
2017-04-19T01:02:48.880Z,0
2017-04-19T01:03:48.610Z,0
2017-04-19T01:04:48.891Z,0
2017-04-19T01:05:49.188Z,0
2017-04-19T01:06:48.855Z,0
2017-04-19T01:07:48.820Z,0
2017-04-19T01:08:48.823Z,0
2017-04-19T01:09:48.474Z,0
2017-04-19T01:10:48.465Z,0
2017-04-19T01:11:48.732Z,0
2017-04-19T01:12:48.723Z,0
2017-04-19T01:13:48.403Z,0
2017-04-19T01:14:48.655Z,0
2017-04-19T01:15:48.340Z,0
2017-04-19T01:16:48.633Z,0
2017-04-19T01:17:48.932Z,0
2017-04-19T01:18:48.652Z,0
2017-04-19T01:19:48.853Z,0
2017-04-19T01:20:48.863Z,0
2017-04-19T01:21:48.253Z,0
2017-04-19T01:22:48.551Z,0
2017-04-19T01:23:48.436Z,0
2017-04-19T01:24:48.793Z,0
2017-04-19T01:25:48.684Z,0
2017-04-19T01:26:48.069Z,0
2017-04-19T01:27:48.354Z,0
2017-04-19T01:28:48.405Z,0
2017-04-19T01:29:47.993Z,0
2017-04-19T01:30:48.332Z,0
2017-04-19T01:31:48.286Z,0
2017-04-19T01:32:48.254Z,0
2017-04-19T01:33:48.275Z,0
2017-04-19T01:34:48.174Z,0
2017-04-19T01:35:48.247Z,0
2017-04-19T01:36:48.433Z,0
2017-04-19T01:37:48.404Z,0
2017-04-19T01:38:48.513Z,0
2017-04-19T01:39:48.353Z,0
2017-04-19T01:40:48.332Z,0
2017-04-19T01:41:48.314Z,0
2017-04-19T01:42:48.027Z,0
2017-04-19T01:43:48.294Z,0
2017-04-19T01:44:48.225Z,0
2017-04-19T01:45:48.214Z,0
2017-04-19T01:46:48.225Z,0
2017-04-19T01:47:48.162Z,0
2017-04-19T01:48:48.129Z,0
2017-04-19T01:49:48.115Z,0
2017-04-19T01:50:47.782Z,0
2017-04-19T01:51:47.500Z,0
2017-04-19T01:52:47.818Z,0
2017-04-19T01:53:47.755Z,0
2017-04-19T01:54:47.715Z,0
2017-04-19T01:55:47.746Z,0
2017-04-19T01:56:47.723Z,0
2017-04-19T01:57:47.583Z,0
2017-04-19T01:58:47.272Z,0
2017-04-19T01:59:47.850Z,0
2017-04-19T02:00:47.824Z,0
2017-04-19T02:01:47.493Z,0
2017-04-19T02:02:47.772Z,0
2017-04-19T02:03:47.503Z,0
2017-04-19T02:04:47.105Z,0
2017-04-19T02:05:46.771Z,0
2017-04-19T02:06:47.369Z,0
2017-04-19T02:07:47.653Z,0
2017-04-19T02:08:47.342Z,0
2017-04-19T02:09:46.986Z,0
2017-04-19T02:10:47.566Z,0
2017-04-19T02:11:46.943Z,0
2017-04-19T02:12:47.222Z,0
2017-04-19T02:13:47.003Z,0
2017-04-19T02:14:47.173Z,0
2017-04-19T02:15:46.855Z,0
2017-04-19T02:16:47.452Z,0
2017-04-19T02:17:47.103Z,0
2017-04-19T02:18:47.292Z,0
2017-04-19T02:19:47.051Z,0
2017-04-19T02:20:46.705Z,0
2017-04-19T02:21:47.294Z,0
2017-04-19T02:22:46.986Z,0
2017-04-19T02:23:46.945Z,0
2017-04-19T02:24:46.912Z,0
2017-04-19T02:25:46.621Z,0
2017-04-19T02:26:47.174Z,0
2017-04-19T02:27:46.631Z,0
2017-04-19T02:28:47.180Z,0
2017-04-19T02:29:46.482Z,0
2017-04-19T02:30:46.462Z,0
2017-04-19T02:31:46.753Z,0
2017-04-19T02:32:47.032Z,0
2017-04-19T02:33:46.692Z,0
2017-04-19T02:34:47.065Z,0
2017-04-19T02:35:46.672Z,0
2017-04-19T02:36:46.662Z,0
2017-04-19T02:37:46.901Z,0
2017-04-19T02:38:46.253Z,0
2017-04-19T02:39:46.853Z,0
2017-04-19T02:40:46.207Z,0
2017-04-19T02:41:46.479Z,0
2017-04-19T02:42:46.765Z,0
2017-04-19T02:43:46.183Z,0
2017-04-19T02:44:46.096Z,0
2017-04-19T02:45:46.384Z,0
2017-04-19T02:46:46.345Z,0
2017-04-19T02:47:46.752Z,0
2017-04-19T02:48:46.313Z,0
2017-04-19T02:49:45.993Z,0
2017-04-19T02:50:46.342Z,0
2017-04-19T02:51:45.944Z,0
2017-04-19T02:52:46.272Z,0
2017-04-19T02:53:45.923Z,0
2017-04-19T02:54:46.162Z,0
2017-04-19T02:55:45.923Z,0
2017-04-19T02:56:45.804Z,0
2017-04-19T02:57:46.482Z,0
2017-04-19T02:58:46.372Z,0
2017-04-19T02:59:46.036Z,0
2017-04-19T03:00:46.012Z,0
2017-04-19T03:01:46.052Z,0
2017-04-19T03:02:45.964Z,0
2017-04-19T03:03:46.463Z,0
2017-04-19T03:04:45.984Z,0
2017-04-19T03:05:45.935Z,0
2017-04-19T03:06:46.003Z,0
2017-04-19T03:07:45.873Z,0
2017-04-19T03:08:46.097Z,0
2017-04-19T03:09:45.799Z,0
2017-04-19T03:10:46.063Z,0
2017-04-19T03:11:45.830Z,0
2017-04-19T03:12:45.748Z,0
2017-04-19T03:13:45.999Z,0
2017-04-19T03:14:45.332Z,0
2017-04-19T03:15:45.923Z,0
2017-04-19T03:16:45.651Z,0
2017-04-19T03:17:45.594Z,0
2017-04-19T03:18:45.561Z,0
2017-04-19T03:19:45.820Z,0
2017-04-19T03:20:45.793Z,0
2017-04-19T03:21:46.048Z,0
2017-04-19T03:22:45.465Z,0
2017-04-19T03:23:45.736Z,0
2017-04-19T03:24:45.683Z,0
2017-04-19T03:25:44.762Z,0
2017-04-19T03:26:45.368Z,0
2017-04-19T03:27:45.010Z,0
2017-04-19T03:28:45.303Z,0
2017-04-19T03:29:44.946Z,0
2017-04-19T03:30:45.542Z,0
2017-04-19T03:31:45.214Z,0
2017-04-19T03:32:45.223Z,0
2017-04-19T03:33:45.479Z,0
2017-04-19T03:34:45.125Z,0
2017-04-19T03:35:45.469Z,0
2017-04-19T03:36:44.463Z,0
2017-04-19T03:37:45.042Z,0
2017-04-19T03:38:45.380Z,0
2017-04-19T03:39:45.299Z,0
2017-04-19T03:40:44.988Z,0
2017-04-19T03:41:45.324Z,0
2017-04-19T03:42:44.923Z,0
2017-04-19T03:43:44.591Z,0
2017-04-19T03:44:45.192Z,0
2017-04-19T03:45:44.842Z,0
2017-04-19T03:46:45.124Z,0
2017-04-19T03:47:45.189Z,0
2017-04-19T03:48:44.463Z,0
2017-04-19T03:49:45.054Z,0
2017-04-19T03:50:44.143Z,4
2017-04-19T03:51:44.703Z,4
2017-04-19T03:52:44.982Z,0
2017-04-19T03:53:44.942Z,0
2017-04-19T03:54:44.918Z,4
2017-04-19T03:55:44.894Z,0
2017-04-19T03:56:44.894Z,4
2017-04-19T03:57:44.843Z,4
2017-04-19T03:58:44.620Z,4
2017-04-19T03:59:44.774Z,4
2017-04-19T04:00:44.162Z,4
2017-04-19T04:01:44.732Z,4
2017-04-19T04:02:44.743Z,8
2017-04-19T04:03:44.080Z,8
2017-04-19T04:04:44.721Z,12
2017-04-19T04:05:44.014Z,12
2017-04-19T04:06:44.503Z,20
2017-04-19T04:07:44.272Z,20
2017-04-19T04:08:44.332Z,20
2017-04-19T04:09:44.232Z,24
2017-04-19T04:10:44.600Z,32
2017-04-19T04:11:44.171Z,32
2017-04-19T04:12:43.973Z,40
2017-04-19T04:13:44.231Z,44
2017-04-19T04:14:44.102Z,48
2017-04-19T04:15:43.752Z,56
2017-04-19T04:16:44.051Z,60
2017-04-19T04:17:43.714Z,72
2017-04-19T04:18:44.072Z,80
2017-04-19T04:19:43.975Z,88
2017-04-19T04:20:43.973Z,96
2017-04-19T04:21:44.224Z,104
2017-04-19T04:22:43.942Z,120
2017-04-19T04:23:43.873Z,128
2017-04-19T04:24:44.024Z,144
2017-04-19T04:25:44.114Z,156
2017-04-19T04:26:43.483Z,172
2017-04-19T04:27:43.453Z,188
2017-04-19T04:28:43.415Z,204
2017-04-19T04:29:43.494Z,220
2017-04-19T04:30:43.978Z,240
2017-04-19T04:31:43.972Z,260
2017-04-19T04:32:43.325Z,280
2017-04-19T04:33:43.623Z,296
2017-04-19T04:34:43.595Z,320
2017-04-19T04:35:43.542Z,340
2017-04-19T04:36:43.529Z,364
2017-04-19T04:37:43.632Z,388
2017-04-19T04:38:43.462Z,412
2017-04-19T04:39:43.462Z,436
2017-04-19T04:40:43.759Z,460
2017-04-19T04:41:43.409Z,484
2017-04-19T04:42:43.402Z,508
2017-04-19T04:43:43.655Z,540
2017-04-19T04:44:43.627Z,560
2017-04-19T04:45:42.976Z,592
2017-04-19T04:46:43.257Z,616
2017-04-19T04:47:43.542Z,644
2017-04-19T04:48:43.552Z,672
2017-04-19T04:49:42.873Z,704
2017-04-19T04:50:43.502Z,732
2017-04-19T04:51:43.445Z,760
2017-04-19T04:52:42.795Z,788
2017-04-19T04:53:43.395Z,816
2017-04-19T04:54:43.373Z,848
2017-04-19T04:55:43.045Z,876
2017-04-19T04:56:43.011Z,908
2017-04-19T04:57:42.662Z,936
2017-04-19T04:58:43.262Z,964
2017-04-19T04:59:42.923Z,992
2017-04-19T05:00:43.214Z,1020
2017-04-19T05:01:43.193Z,1052
2017-04-19T05:02:42.833Z,1084
2017-04-19T05:03:42.522Z,1112
2017-04-19T05:04:42.794Z,1144
2017-04-19T05:05:43.085Z,1172
2017-04-19T05:06:42.755Z,1196
2017-04-19T05:07:42.723Z,1228
2017-04-19T05:08:43.004Z,1256
2017-04-19T05:09:42.402Z,1284
2017-04-19T05:10:42.943Z,1312
2017-04-19T05:11:42.918Z,1340
2017-04-19T05:12:42.902Z,1368
2017-04-19T05:13:42.574Z,1396
2017-04-19T05:14:42.234Z,1428
2017-04-19T05:15:42.871Z,1456
2017-04-19T05:16:42.490Z,1480
2017-04-19T05:17:42.888Z,1512
2017-04-19T05:18:42.777Z,1540
2017-04-19T05:19:42.189Z,1564
2017-04-19T05:20:42.080Z,1596
2017-04-19T05:21:42.448Z,1620
2017-04-19T05:22:42.449Z,1648
2017-04-19T05:23:42.001Z,1676
2017-04-19T05:24:42.722Z,1708
2017-04-19T05:25:41.781Z,1740
2017-04-19T05:26:42.242Z,1768
2017-04-19T05:27:42.626Z,1796
2017-04-19T05:28:42.192Z,1828
2017-04-19T05:29:42.462Z,1864
2017-04-19T05:30:42.432Z,1884
2017-04-19T05:31:41.781Z,1916
2017-04-19T05:32:42.381Z,1944
2017-04-19T05:33:41.761Z,1976
2017-04-19T05:34:42.350Z,2004
2017-04-19T05:35:42.003Z,2024
2017-04-19T05:36:41.661Z,2052
2017-04-19T05:37:41.944Z,2084
2017-04-19T05:38:41.660Z,2112
2017-04-19T05:39:42.223Z,2140
2017-04-19T05:40:41.613Z,2164
2017-04-19T05:41:42.155Z,2196
2017-04-19T05:42:42.124Z,2232
2017-04-19T05:43:41.805Z,2244
2017-04-19T05:44:42.090Z,2288
2017-04-19T05:45:42.041Z,2316
2017-04-19T05:46:41.732Z,2340
2017-04-19T05:47:41.381Z,2356
2017-04-19T05:48:41.452Z,2392
2017-04-19T05:49:41.333Z,2420
2017-04-19T05:50:41.732Z,2436
2017-04-19T05:51:41.283Z,2472
2017-04-19T05:52:41.323Z,2512
2017-04-19T05:53:41.234Z,2524
2017-04-19T05:54:41.218Z,2564
2017-04-19T05:55:41.891Z,2600
2017-04-19T05:56:41.592Z,2624
2017-04-19T05:57:41.129Z,2660
2017-04-19T05:58:41.132Z,2696
2017-04-19T05:59:41.381Z,2724
2017-04-19T06:00:41.658Z,2756
2017-04-19T06:01:41.033Z,2800
2017-04-19T06:02:41.609Z,2824
2017-04-19T06:03:41.292Z,2848
2017-04-19T06:04:40.953Z,2888
2017-04-19T06:05:41.369Z,2912
2017-04-19T06:06:41.213Z,2936
2017-04-19T06:07:41.520Z,2980
2017-04-19T06:08:41.469Z,3020
2017-04-19T06:09:41.514Z,3032
2017-04-19T06:10:41.123Z,3056
2017-04-19T06:11:41.088Z,3080
2017-04-19T06:12:41.082Z,3128
2017-04-19T06:13:40.748Z,3156
2017-04-19T06:14:41.002Z,3188
2017-04-19T06:15:41.292Z,3224
2017-04-19T06:16:41.279Z,3256
2017-04-19T06:17:41.291Z,3312
2017-04-19T06:18:41.222Z,3312
2017-04-19T06:19:41.255Z,3312
2017-04-19T06:20:41.184Z,3372
2017-04-19T06:21:41.190Z,3464
2017-04-19T06:22:40.833Z,3456
2017-04-19T06:23:41.113Z,3496
2017-04-19T06:24:41.152Z,3504
2017-04-19T06:25:40.431Z,3608
2017-04-19T06:26:40.423Z,3652
2017-04-19T06:27:41.002Z,3676
2017-04-19T06:28:41.014Z,3716
2017-04-19T06:29:40.632Z,3716
2017-04-19T06:30:40.927Z,3824
2017-04-19T06:31:40.604Z,3888
2017-04-19T06:32:40.723Z,3872
2017-04-19T06:33:40.854Z,3848
2017-04-19T06:34:40.274Z,3960
2017-04-19T06:35:40.184Z,4016
2017-04-19T06:36:40.550Z,4024
2017-04-19T06:37:40.128Z,4028
2017-04-19T06:38:40.431Z,4008
2017-04-19T06:39:40.394Z,4084
2017-04-19T06:40:40.672Z,4144
2017-04-19T06:41:40.771Z,4168
2017-04-19T06:42:40.632Z,4208
2017-04-19T06:43:40.600Z,4196
2017-04-19T06:44:40.322Z,4260
2017-04-19T06:45:40.021Z,4324
2017-04-19T06:46:39.912Z,4336
2017-04-19T06:47:40.200Z,4404
2017-04-19T06:48:40.487Z,4524
2017-04-19T06:49:40.494Z,10156
2017-04-19T06:50:40.061Z,9184
2017-04-19T06:51:39.793Z,11448
2017-04-19T06:52:40.383Z,29984
2017-04-19T06:53:39.730Z,48800
2017-04-19T06:54:40.040Z,72064
2017-04-19T06:55:40.288Z,97952
2017-04-19T06:56:39.673Z,51936
2017-04-19T06:57:40.252Z,94240
2017-04-19T06:58:39.624Z,84256
2017-04-19T06:59:40.219Z,89856
2017-04-19T07:00:40.211Z,98720
2017-04-19T07:01:39.665Z,98048
2017-04-19T07:02:39.241Z,94528
2017-04-19T07:03:40.143Z,95520
2017-04-19T07:04:40.109Z,98848
2017-04-19T07:05:39.483Z,99072
2017-04-19T07:06:39.767Z,94336
2017-04-19T07:07:39.787Z,89472
2017-04-19T07:08:39.418Z,85856
2017-04-19T07:09:39.835Z,84416
2017-04-19T07:10:39.995Z,95840
2017-04-19T07:11:39.404Z,105856
2017-04-19T07:12:39.350Z,100704
2017-04-19T07:13:39.406Z,63072
2017-04-19T07:14:39.636Z,7488
2017-04-19T07:15:39.651Z,8364
2017-04-19T07:16:39.586Z,8660
2017-04-19T07:17:39.633Z,7772
2017-04-19T07:18:39.634Z,7852
2017-04-19T07:19:38.943Z,7824
2017-04-19T07:20:39.835Z,8100
2017-04-19T07:21:39.525Z,8504
2017-04-19T07:22:39.514Z,7880
2017-04-19T07:23:39.815Z,10476
2017-04-19T07:24:39.582Z,8784
2017-04-19T07:25:39.762Z,8160
2017-04-19T07:26:39.524Z,7072
2017-04-19T07:27:39.794Z,8620
2017-04-19T07:28:39.434Z,8776
2017-04-19T07:29:39.844Z,8476
2017-04-19T07:30:39.404Z,8768
2017-04-19T07:31:39.396Z,9552
2017-04-19T07:32:39.742Z,9628
2017-04-19T07:33:39.052Z,9508
2017-04-19T07:34:39.483Z,13120
2017-04-19T07:35:39.895Z,12848
2017-04-19T07:36:39.314Z,12948
2017-04-19T07:37:39.307Z,25568
2017-04-19T07:38:38.694Z,50624
2017-04-19T07:39:39.274Z,104640
2017-04-19T07:40:39.310Z,107808
2017-04-19T07:41:39.264Z,24928
2017-04-19T07:42:39.550Z,14608
2017-04-19T07:43:38.904Z,25056
2017-04-19T07:44:39.265Z,107744
2017-04-19T07:45:39.215Z,106464
2017-04-19T07:46:39.485Z,111648
2017-04-19T07:47:39.510Z,7780
2017-04-19T07:48:39.454Z,92608
2017-04-19T07:49:39.158Z,102240
2017-04-19T07:50:39.143Z,103264
2017-04-19T07:51:39.133Z,11288
2017-04-19T07:52:39.413Z,97184
2017-04-19T07:53:39.463Z,108320
2017-04-19T07:54:39.543Z,61856
2017-04-19T07:55:39.383Z,102368
2017-04-19T07:56:39.095Z,102848
2017-04-19T07:57:39.043Z,96672
2017-04-19T07:58:39.364Z,45760
2017-04-19T07:59:39.342Z,8648
2017-04-19T08:00:39.033Z,15756
2017-04-19T08:01:39.343Z,101952
2017-04-19T08:02:39.287Z,99488
2017-04-19T08:03:38.663Z,97376
2017-04-19T08:04:38.973Z,8556
2017-04-19T08:05:38.955Z,10516
2017-04-19T08:06:38.932Z,10476
2017-04-19T08:07:39.218Z,8856
2017-04-19T08:08:38.914Z,8028
2017-04-19T08:09:38.911Z,7384
2017-04-19T08:10:38.876Z,6480
2017-04-19T08:11:38.862Z,5948
2017-04-19T08:12:39.162Z,5784
2017-04-19T08:13:38.580Z,6164
2017-04-19T08:14:38.823Z,6524
2017-04-19T08:15:38.815Z,8280
2017-04-19T08:16:39.111Z,61792
2017-04-19T08:17:38.769Z,10984
2017-04-19T08:18:38.762Z,14016
2017-04-19T08:19:39.045Z,8080
2017-04-19T08:20:39.050Z,7172
2017-04-19T08:21:38.711Z,74208
2017-04-19T08:22:38.992Z,10412
2017-04-19T08:23:38.727Z,82944
2017-04-19T08:24:38.653Z,41696
2017-04-19T08:25:38.992Z,7696
2017-04-19T08:26:38.930Z,6760
2017-04-19T08:27:38.912Z,11832
2017-04-19T08:28:38.880Z,17312
2017-04-19T08:29:38.554Z,8932
2017-04-19T08:30:38.895Z,7900
2017-04-19T08:31:38.862Z,87936
2017-04-19T08:32:38.518Z,103104
2017-04-19T08:33:38.783Z,89312
2017-04-19T08:34:38.805Z,68064
2017-04-19T08:35:38.467Z,96608
2017-04-19T08:36:38.751Z,99168
2017-04-19T08:37:38.767Z,80672
2017-04-19T08:38:38.753Z,16928
2017-04-19T08:39:38.712Z,8152
2017-04-19T08:40:38.723Z,8304
2017-04-19T08:41:38.384Z,7204
2017-04-19T08:42:38.702Z,7444
2017-04-19T08:43:38.667Z,8636
2017-04-19T08:44:38.686Z,11292
2017-04-19T08:45:38.650Z,13700
2017-04-19T08:46:38.324Z,11148
2017-04-19T08:47:38.605Z,10692
2017-04-19T08:48:38.573Z,63712
2017-04-19T08:49:37.730Z,10308
2017-04-19T08:50:38.555Z,11924
2017-04-19T08:51:38.336Z,25792
2017-04-19T08:52:38.270Z,26880
2017-04-19T08:53:38.204Z,10112
2017-04-19T08:54:38.273Z,63360
2017-04-19T08:55:38.497Z,16864
2017-04-19T08:56:38.144Z,62592
2017-04-19T08:57:38.452Z,59616
2017-04-19T08:58:38.130Z,66496
2017-04-19T08:59:38.161Z,66688
2017-04-19T09:00:38.095Z,66432
2017-04-19T09:01:38.130Z,70592
2017-04-19T09:02:38.453Z,69472
2017-04-19T09:03:38.426Z,75200
2017-04-19T09:04:38.372Z,90496
2017-04-19T09:05:38.353Z,20480
2017-04-19T09:06:38.440Z,74816
2017-04-19T09:07:38.018Z,14264
2017-04-19T09:08:38.406Z,80864
2017-04-19T09:09:37.991Z,89376
2017-04-19T09:10:38.055Z,11084
2017-04-19T09:11:38.309Z,97120
2017-04-19T09:12:37.955Z,32448
2017-04-19T09:13:38.341Z,19072
2017-04-19T09:14:38.247Z,25920
2017-04-19T09:15:38.237Z,11900
2017-04-19T09:16:38.255Z,15312
2017-04-19T09:17:38.251Z,7816
2017-04-19T09:18:38.223Z,7204
2017-04-19T09:19:38.404Z,7316
2017-04-19T09:20:38.223Z,7680
2017-04-19T09:21:37.848Z,8524
2017-04-19T09:22:38.174Z,19296
2017-04-19T09:23:38.121Z,77152
2017-04-19T09:24:38.167Z,23968
2017-04-19T09:25:37.796Z,73920
2017-04-19T09:26:38.093Z,75776
2017-04-19T09:27:37.476Z,81568
2017-04-19T09:28:37.435Z,81280
2017-04-19T09:29:38.105Z,75808
2017-04-19T09:30:38.049Z,77856
2017-04-19T09:31:38.041Z,77184
2017-04-19T09:32:37.699Z,72832
2017-04-19T09:33:37.682Z,77440
2017-04-19T09:34:37.067Z,73472
2017-04-19T09:35:37.665Z,30880
2017-04-19T09:36:37.963Z,74240
2017-04-19T09:37:37.352Z,34816
2017-04-19T09:38:37.903Z,72448
2017-04-19T09:39:37.925Z,71936
2017-04-19T09:40:37.623Z,72736
2017-04-19T09:41:37.933Z,72864
2017-04-19T09:42:37.902Z,72160
2017-04-19T09:43:37.923Z,32160
2017-04-19T09:44:37.923Z,41952
2017-04-19T09:45:37.870Z,54688
2017-04-19T09:46:37.562Z,72992
2017-04-19T09:47:37.564Z,70784
2017-04-19T09:48:37.554Z,65120
2017-04-19T09:49:37.845Z,63968
2017-04-19T09:50:37.542Z,68192
2017-04-19T09:51:37.835Z,69376
2017-04-19T09:52:37.512Z,67872
2017-04-19T09:53:37.513Z,69088
2017-04-19T09:54:37.803Z,65824
2017-04-19T09:55:37.793Z,66752
2017-04-19T09:56:37.699Z,58336
2017-04-19T09:57:37.766Z,47264
2017-04-19T09:58:37.765Z,48544
2017-04-19T09:59:37.751Z,30560
2017-04-19T10:00:37.745Z,40064
2017-04-19T10:01:37.124Z,27104
2017-04-19T10:02:37.728Z,14044
2017-04-19T10:03:37.708Z,10500
2017-04-19T10:04:37.382Z,58400
2017-04-19T10:05:37.704Z,25536
2017-04-19T10:06:37.449Z,12872
2017-04-19T10:07:37.352Z,57728
2017-04-19T10:08:37.425Z,57888
2017-04-19T10:09:37.664Z,43360
2017-04-19T10:10:37.025Z,36544
2017-04-19T10:11:37.025Z,13548
2017-04-19T10:12:37.294Z,38208
2017-04-19T10:13:37.291Z,9480
2017-04-19T10:14:37.602Z,14972
2017-04-19T10:15:37.261Z,8188
2017-04-19T10:16:37.293Z,7800
2017-04-19T10:17:37.552Z,8284
2017-04-19T10:18:37.236Z,9208
2017-04-19T10:19:37.510Z,14940
2017-04-19T10:20:37.555Z,9712
2017-04-19T10:21:37.184Z,9632
2017-04-19T10:22:37.222Z,9636
2017-04-19T10:23:36.876Z,9880
2017-04-19T10:24:37.488Z,12032
2017-04-19T10:25:37.504Z,10344
2017-04-19T10:26:37.475Z,7872
2017-04-19T10:27:37.409Z,7104
2017-04-19T10:28:37.145Z,7172
2017-04-19T10:29:37.065Z,7236
2017-04-19T10:30:37.403Z,7680
2017-04-19T10:31:37.326Z,8152
2017-04-19T10:32:37.336Z,8336
2017-04-19T10:33:37.016Z,9120
2017-04-19T10:34:37.064Z,9588
2017-04-19T10:35:36.664Z,10652
2017-04-19T10:36:36.990Z,15232
2017-04-19T10:37:36.921Z,13008
2017-04-19T10:38:37.250Z,11376
2017-04-19T10:39:37.244Z,10816
2017-04-19T10:40:36.882Z,7320
2017-04-19T10:41:36.859Z,6016
2017-04-19T10:42:36.864Z,5988
2017-04-19T10:43:37.225Z,6276
2017-04-19T10:44:37.262Z,6776
2017-04-19T10:45:37.104Z,7252
2017-04-19T10:46:37.085Z,7440
2017-04-19T10:47:36.764Z,11708
2017-04-19T10:48:36.753Z,9176
2017-04-19T10:49:36.743Z,6492
2017-04-19T10:50:36.742Z,6476
2017-04-19T10:51:36.383Z,6588
2017-04-19T10:52:36.732Z,6616
2017-04-19T10:53:36.884Z,6216
2017-04-19T10:54:36.660Z,6100
2017-04-19T10:55:36.934Z,5804
2017-04-19T10:56:36.304Z,5808
2017-04-19T10:57:36.896Z,5796
2017-04-19T10:58:36.582Z,5880
2017-04-19T10:59:36.981Z,6112
2017-04-19T11:00:36.533Z,6220
2017-04-19T11:01:36.534Z,10268
2017-04-19T11:02:36.513Z,6072
2017-04-19T11:03:36.189Z,6304
2017-04-19T11:04:36.792Z,10256
2017-04-19T11:05:36.843Z,5496
2017-04-19T11:06:36.735Z,5108
2017-04-19T11:07:36.418Z,5024
2017-04-19T11:08:36.130Z,5084
2017-04-19T11:09:36.387Z,5128
2017-04-19T11:10:36.719Z,5092
2017-04-19T11:11:36.352Z,5356
2017-04-19T11:12:36.643Z,5580
2017-04-19T11:13:36.315Z,5564
2017-04-19T11:14:36.603Z,5516
2017-04-19T11:15:36.261Z,5304
2017-04-19T11:16:36.015Z,4940
2017-04-19T11:17:36.612Z,4892
2017-04-19T11:18:36.519Z,5052
2017-04-19T11:19:36.245Z,5244
2017-04-19T11:20:36.483Z,5196
2017-04-19T11:21:36.462Z,5088
2017-04-19T11:22:36.442Z,4944
2017-04-19T11:23:36.433Z,4716
2017-04-19T11:24:36.433Z,4568
2017-04-19T11:25:36.405Z,4416
2017-04-19T11:26:36.358Z,4220
2017-04-19T11:27:36.384Z,4212
2017-04-19T11:28:36.015Z,4304
2017-04-19T11:29:36.364Z,4496
2017-04-19T11:30:36.325Z,4652
2017-04-19T11:31:36.013Z,5096
2017-04-19T11:32:36.010Z,5104
2017-04-19T11:33:36.255Z,5344
2017-04-19T11:34:35.922Z,5176
2017-04-19T11:35:35.913Z,5300
2017-04-19T11:36:36.209Z,6656
2017-04-19T11:37:35.892Z,11208
2017-04-19T11:38:36.136Z,11392
2017-04-19T11:39:35.829Z,11416
2017-04-19T11:40:35.797Z,9040
2017-04-19T11:41:35.788Z,10336
2017-04-19T11:42:35.749Z,7232
2017-04-19T11:43:36.085Z,11520
2017-04-19T11:44:36.055Z,10484
2017-04-19T11:45:36.015Z,7756
2017-04-19T11:46:36.015Z,8020
2017-04-19T11:47:35.693Z,13320
2017-04-19T11:48:35.680Z,8808
2017-04-19T11:49:36.048Z,7696
2017-04-19T11:50:35.618Z,7324
2017-04-19T11:51:35.938Z,6904
2017-04-19T11:52:35.594Z,6624
2017-04-19T11:53:35.593Z,6352
2017-04-19T11:54:35.872Z,6096
2017-04-19T11:55:35.844Z,5848
2017-04-19T11:56:35.845Z,5848
2017-04-19T11:57:35.813Z,6064
2017-04-19T11:58:35.790Z,6176
2017-04-19T11:59:35.773Z,6224
2017-04-19T12:00:35.461Z,6092
2017-04-19T12:01:35.123Z,6156
2017-04-19T12:02:35.115Z,6604
2017-04-19T12:03:35.401Z,12192
2017-04-19T12:04:35.684Z,12052
2017-04-19T12:05:35.658Z,11984
2017-04-19T12:06:34.725Z,5956
2017-04-19T12:07:35.622Z,5364
2017-04-19T12:08:35.354Z,4948
2017-04-19T12:09:35.274Z,4716
2017-04-19T12:10:35.264Z,4652
2017-04-19T12:11:34.940Z,4672
2017-04-19T12:12:35.532Z,4720
2017-04-19T12:13:34.893Z,4764
2017-04-19T12:14:35.505Z,4916
2017-04-19T12:15:35.481Z,5124
2017-04-19T12:16:35.462Z,5496
2017-04-19T12:17:35.532Z,5816
2017-04-19T12:18:35.123Z,7260
2017-04-19T12:19:35.102Z,12064
2017-04-19T12:20:35.388Z,11964
2017-04-19T12:21:34.753Z,12272
2017-04-19T12:22:35.033Z,7536
2017-04-19T12:23:35.342Z,6904
2017-04-19T12:24:35.313Z,7020
2017-04-19T12:25:34.731Z,7028
2017-04-19T12:26:34.993Z,6952
2017-04-19T12:27:34.342Z,6816
2017-04-19T12:28:35.243Z,6960
2017-04-19T12:29:35.233Z,6672
2017-04-19T12:30:34.893Z,6216
2017-04-19T12:31:34.880Z,5948
2017-04-19T12:32:34.562Z,5776
2017-04-19T12:33:35.155Z,5764
2017-04-19T12:34:34.834Z,5660
2017-04-19T12:35:34.593Z,5612
2017-04-19T12:36:35.124Z,5608
2017-04-19T12:37:34.775Z,5764
2017-04-19T12:38:35.052Z,6036
2017-04-19T12:39:35.034Z,6348
2017-04-19T12:40:34.412Z,6692
2017-04-19T12:41:34.794Z,7316
2017-04-19T12:42:34.999Z,8264
2017-04-19T12:43:34.063Z,10960
2017-04-19T12:44:34.683Z,10680
2017-04-19T12:45:34.631Z,8948
2017-04-19T12:46:34.675Z,7932
2017-04-19T12:47:34.603Z,7588
2017-04-19T12:48:34.892Z,7380
2017-04-19T12:49:34.583Z,7184
2017-04-19T12:50:34.546Z,6540
2017-04-19T12:51:34.515Z,6324
2017-04-19T12:52:34.825Z,6448
2017-04-19T12:53:34.482Z,6544
2017-04-19T12:54:34.172Z,6440
2017-04-19T12:55:34.982Z,6188
2017-04-19T12:56:34.430Z,6036
2017-04-19T12:57:34.732Z,5868
2017-04-19T12:58:34.700Z,5652
2017-04-19T12:59:34.403Z,8408
2017-04-19T13:00:34.715Z,10332
2017-04-19T13:01:34.658Z,10312
2017-04-19T13:02:34.632Z,4964
2017-04-19T13:03:34.080Z,4776
2017-04-19T13:04:34.605Z,4624
2017-04-19T13:05:34.605Z,4556
2017-04-19T13:06:34.365Z,4568
2017-04-19T13:07:34.560Z,4564
2017-04-19T13:08:34.220Z,4532
2017-04-19T13:09:34.204Z,4456
2017-04-19T13:10:33.893Z,4320
2017-04-19T13:11:33.854Z,4176
2017-04-19T13:12:34.147Z,4084
2017-04-19T13:13:34.456Z,4048
2017-04-19T13:14:34.414Z,4080
2017-04-19T13:15:34.093Z,4380
2017-04-19T13:16:34.082Z,10048
2017-04-19T13:17:34.060Z,10084
2017-04-19T13:18:34.062Z,10244
2017-04-19T13:19:33.724Z,10288
2017-04-19T13:20:34.292Z,10532
2017-04-19T13:21:34.291Z,10816
2017-04-19T13:22:33.985Z,11224
2017-04-19T13:23:34.241Z,9688
2017-04-19T13:24:34.242Z,8852
2017-04-19T13:25:33.597Z,11040
2017-04-19T13:26:34.206Z,8440
2017-04-19T13:27:34.203Z,12136
2017-04-19T13:28:33.923Z,12188
2017-04-19T13:29:34.149Z,7756
2017-04-19T13:30:34.122Z,7220
2017-04-19T13:31:34.384Z,5148
2017-04-19T13:32:34.091Z,4456
2017-04-19T13:33:34.085Z,4052
2017-04-19T13:34:34.076Z,3736
2017-04-19T13:35:34.045Z,3492
2017-04-19T13:36:34.036Z,3288
2017-04-19T13:37:34.014Z,3108
2017-04-19T13:38:33.715Z,2996